createdAt,value
2022-12-16T00:01:15.563Z,97245.53
2022-12-16T00:03:46.621Z,97246.38
2022-12-16T00:06:13.059Z,97242.94
2022-12-16T00:08:40.118Z,97245.78
2022-12-16T00:11:07.902Z,97242.75
2022-12-16T00:13:36.381Z,97235.44
2022-12-16T00:16:11.918Z,97235.19
2022-12-16T00:18:39.150Z,97239.03
2022-12-16T00:21:06.284Z,97242.69
2022-12-16T00:23:33.981Z,97239.88
2022-12-16T00:26:01.205Z,97245.56
2022-12-16T00:28:27.977Z,97249.00
2022-12-16T00:30:56.008Z,97254.91
2022-12-16T00:33:24.384Z,97243.16
2022-12-16T00:35:51.875Z,97246.19
2022-12-16T00:38:19.410Z,97250.84
2022-12-16T00:40:46.231Z,97253.31
2022-12-16T00:43:12.931Z,97251.91
2022-12-16T00:45:39.623Z,97264.28
2022-12-16T00:48:06.964Z,97261.88
2022-12-16T00:50:34.605Z,97263.72
2022-12-16T00:53:01.265Z,97272.03
2022-12-16T00:55:27.731Z,97272.44
2022-12-16T00:57:54.908Z,97278.53
2022-12-16T01:00:22.528Z,97267.97
2022-12-16T01:02:50.765Z,97275.69
2022-12-16T01:05:20.752Z,97282.59
2022-12-16T01:07:48.271Z,97308.81
2022-12-16T01:10:15.011Z,97301.28
2022-12-16T01:12:41.630Z,97289.91
2022-12-16T01:15:09.102Z,97285.44
2022-12-16T01:17:35.788Z,97283.41
2022-12-16T01:20:02.936Z,97297.00
2022-12-16T01:22:33.218Z,97300.88
2022-12-16T01:25:00.569Z,97298.66
2022-12-16T01:27:29.056Z,97295.38
2022-12-16T01:29:55.766Z,97304.53
2022-12-16T01:32:23.047Z,97305.94
2022-12-16T01:34:55.423Z,97305.53
2022-12-16T01:37:23.183Z,97305.31
2022-12-16T01:39:49.810Z,97309.22
2022-12-16T01:42:20.029Z,97317.50
2022-12-16T01:44:48.958Z,97313.03
2022-12-16T01:47:31.161Z,97322.38
2022-12-16T01:50:00.419Z,97326.84
2022-12-16T01:52:33.819Z,97333.78
2022-12-16T01:55:12.540Z,97337.84
2022-12-16T01:57:59.378Z,97344.75
2022-12-16T02:00:25.890Z,97345.94
2022-12-16T02:02:53.951Z,97342.69
2022-12-16T02:05:21.622Z,97345.53
2022-12-16T02:07:59.082Z,97353.06
2022-12-16T02:10:51.339Z,97352.84
2022-12-16T02:14:01.174Z,97354.06
2022-12-16T02:16:39.340Z,97367.88
2022-12-16T02:19:41.650Z,97375.22
2022-12-16T02:22:28.938Z,97382.91
2022-12-16T02:25:29.153Z,97388.00
2022-12-16T02:28:04.118Z,97389.00
2022-12-16T02:30:49.473Z,97395.47
2022-12-16T02:33:29.095Z,97386.34
2022-12-16T02:36:28.744Z,97395.47
2022-12-16T02:39:11.902Z,97393.47
2022-12-16T02:41:49.526Z,97404.81
2022-12-16T02:44:17.455Z,97399.94
2022-12-16T02:46:53.135Z,97399.53
2022-12-16T02:49:21.814Z,97401.16
2022-12-16T02:51:49.306Z,97398.72
2022-12-16T02:54:17.554Z,97413.78
2022-12-16T02:57:02.532Z,97404.03
2022-12-16T02:59:54.185Z,97418.19
2022-12-16T03:02:42.673Z,97416.19
2022-12-16T03:05:18.979Z,97415.38
2022-12-16T03:07:47.497Z,97420.66
2022-12-16T03:10:18.309Z,97415.78
2022-12-16T03:12:46.298Z,97404.59
2022-12-16T03:15:19.213Z,97417.38
2022-12-16T03:17:48.732Z,97419.00
2022-12-16T03:20:50.010Z,97423.06
2022-12-16T03:23:22.839Z,97427.56
2022-12-16T03:25:54.329Z,97433.22
2022-12-16T03:28:39.793Z,97451.84
2022-12-16T03:31:43.930Z,97456.16
2022-12-16T03:34:45.554Z,97455.13
2022-12-16T03:37:13.674Z,97455.13
2022-12-16T03:39:44.990Z,97460.41
2022-12-16T03:42:13.518Z,97462.66
2022-12-16T03:44:40.061Z,97454.16
2022-12-16T03:47:06.593Z,97458.03
2022-12-16T03:49:33.052Z,97452.75
2022-12-16T03:51:59.706Z,97451.72
2022-12-16T03:54:26.225Z,97456.19
2022-12-16T03:56:52.714Z,97460.06
2022-12-16T03:59:19.261Z,97462.91
2022-12-16T04:01:45.889Z,97462.28
2022-12-16T04:04:12.800Z,97460.88
2022-12-16T04:06:39.293Z,97464.34
2022-12-16T04:09:05.877Z,97473.88
2022-12-16T04:11:50.766Z,97471.22
2022-12-16T04:14:35.706Z,97484.41
2022-12-16T04:17:21.414Z,97485.00
2022-12-16T04:20:07.346Z,97490.06
2022-12-16T04:23:01.930Z,97498.81
2022-12-16T04:25:36.933Z,97501.03
2022-12-16T04:28:03.473Z,97507.53
2022-12-16T04:30:34.729Z,97504.06
2022-12-16T04:33:23.661Z,97497.34
2022-12-16T04:36:09.120Z,97512.75
2022-12-16T04:38:54.835Z,97512.38
2022-12-16T04:41:39.956Z,97523.13
2022-12-16T04:44:24.990Z,97527.41
2022-12-16T04:47:10.282Z,97521.94
2022-12-16T04:49:55.045Z,97519.53
2022-12-16T04:52:40.521Z,97529.28
2022-12-16T04:55:27.040Z,97531.03
2022-12-16T04:58:13.832Z,97539.81
2022-12-16T05:00:59.750Z,97550.19
2022-12-16T05:03:45.828Z,97546.47
2022-12-16T05:06:31.889Z,97552.22
2022-12-16T05:09:17.245Z,97557.53
2022-12-16T05:12:01.965Z,97564.16
2022-12-16T05:14:47.461Z,97567.22
2022-12-16T05:17:32.708Z,97569.25
2022-12-16T05:20:34.376Z,97577.09
2022-12-16T05:23:19.598Z,97573.06
2022-12-16T05:26:04.277Z,97582.16
2022-12-16T05:28:49.344Z,97580.50
2022-12-16T05:31:34.184Z,97585.00
2022-12-16T05:34:19.473Z,97588.25
2022-12-16T05:37:04.853Z,97591.97
2022-12-16T05:39:49.657Z,97599.13
2022-12-16T05:42:34.646Z,97603.56
2022-12-16T05:45:19.485Z,97608.28
2022-12-16T05:48:07.328Z,97603.19
2022-12-16T05:50:52.631Z,97608.06
2022-12-16T05:53:37.432Z,97608.91
2022-12-16T05:56:23.040Z,97615.44
2022-12-16T05:59:07.966Z,97619.66
2022-12-16T06:01:53.016Z,97616.44
2022-12-16T06:04:38.090Z,97621.16
2022-12-16T06:07:23.612Z,97630.84
2022-12-16T06:10:08.418Z,97625.75
2022-12-16T06:12:53.792Z,97631.06
2022-12-16T06:15:38.687Z,97637.56
2022-12-16T06:18:23.869Z,97641.41
2022-12-16T06:21:08.806Z,97648.75
2022-12-16T06:23:53.488Z,97656.78
2022-12-16T06:26:38.837Z,97650.50
2022-12-16T06:29:23.573Z,97659.31
2022-12-16T06:32:08.525Z,97659.47
2022-12-16T06:34:53.460Z,97670.03
2022-12-16T06:37:38.208Z,97672.91
2022-12-16T06:40:24.111Z,97672.47
2022-12-16T06:43:08.948Z,97681.19
2022-12-16T06:45:54.111Z,97685.72
2022-12-16T06:48:38.902Z,97693.63
2022-12-16T06:51:24.498Z,97697.47
2022-12-16T06:54:09.683Z,97699.34
2022-12-16T06:56:55.218Z,97697.72
2022-12-16T06:59:40.623Z,97708.06
2022-12-16T07:02:29.499Z,97711.47
2022-12-16T07:05:14.643Z,97720.16
2022-12-16T07:08:09.179Z,97728.47
2022-12-16T07:10:57.980Z,97729.47
2022-12-16T07:13:46.497Z,97744.69
2022-12-16T07:16:31.252Z,97744.69
2022-12-16T07:19:16.275Z,97744.50
2022-12-16T07:22:01.378Z,97744.69
2022-12-16T07:24:46.199Z,97750.81
2022-12-16T07:27:31.222Z,97759.59
2022-12-16T07:30:16.090Z,97765.09
2022-12-16T07:33:01.074Z,97767.56
2022-12-16T07:35:45.924Z,97771.63
2022-12-16T07:38:31.431Z,97776.09
2022-12-16T07:41:16.235Z,97780.63
2022-12-16T07:44:01.114Z,97794.00
2022-12-16T07:46:46.002Z,97798.72
2022-12-16T07:49:30.798Z,97793.81
2022-12-16T07:52:15.797Z,97810.28
2022-12-16T07:55:00.510Z,97804.56
2022-12-16T07:57:45.346Z,97803.75
2022-12-16T08:00:30.639Z,97818.16
2022-12-16T08:03:15.651Z,97817.09
2022-12-16T08:06:00.808Z,97813.06
2022-12-16T08:08:45.601Z,97820.34
2022-12-16T08:11:30.629Z,97825.97
2022-12-16T08:14:15.462Z,97838.97
2022-12-16T08:17:00.412Z,97839.34
2022-12-16T08:19:45.510Z,97839.97
2022-12-16T08:22:30.430Z,97854.41
2022-12-16T08:25:15.271Z,97856.41
2022-12-16T08:28:00.245Z,97859.97
2022-12-16T08:30:45.184Z,97866.09
2022-12-16T08:33:30.280Z,97870.41
2022-12-16T08:36:18.299Z,97870.84
2022-12-16T08:39:02.936Z,97872.06
2022-12-16T08:41:47.811Z,97876.28
2022-12-16T08:44:32.563Z,97877.22
2022-12-16T08:47:24.876Z,97891.41
2022-12-16T08:50:09.910Z,97893.13
2022-12-16T08:52:54.869Z,97897.22
2022-12-16T08:55:39.751Z,97899.44
2022-12-16T08:58:24.721Z,97897.19
2022-12-16T09:01:09.649Z,97900.50
2022-12-16T09:03:55.461Z,97911.63
2022-12-16T09:06:41.771Z,97909.63
2022-12-16T09:09:28.238Z,97915.28
2022-12-16T09:12:13.831Z,97919.81
2022-12-16T09:14:58.566Z,97922.88
2022-12-16T09:17:43.426Z,97924.97
2022-12-16T09:20:28.699Z,97936.47
2022-12-16T09:23:14.208Z,97938.09
2022-12-16T09:25:59.459Z,97944.72
2022-12-16T09:28:44.540Z,97937.63
2022-12-16T09:31:29.472Z,97946.19
2022-12-16T09:34:14.591Z,97952.66
2022-12-16T09:36:59.611Z,97944.28
2022-12-16T09:39:44.423Z,97952.28
2022-12-16T09:43:11.557Z,97963.06
2022-12-16T09:46:31.062Z,97969.41
2022-12-16T09:49:25.045Z,97978.94
2022-12-16T09:52:16.518Z,97975.94
2022-12-16T09:55:05.445Z,97972.66
2022-12-16T09:57:53.712Z,97977.19
2022-12-16T10:00:43.062Z,97973.91
2022-12-16T10:03:41.326Z,97985.75
2022-12-16T10:06:48.409Z,97983.59
2022-12-16T10:09:39.359Z,97992.66
2022-12-16T10:12:50.526Z,97988.31
2022-12-16T10:15:45.451Z,97983.53
2022-12-16T10:18:47.247Z,97988.88
2022-12-16T10:21:40.451Z,97986.13
2022-12-16T10:24:59.709Z,97981.28
2022-12-16T10:28:06.136Z,97989.91
2022-12-16T10:30:53.604Z,97983.22
2022-12-16T10:33:40.863Z,97988.78
2022-12-16T10:36:39.356Z,97984.72
2022-12-16T10:39:43.254Z,97987.44
2022-12-16T10:42:49.418Z,97984.34
2022-12-16T10:45:44.527Z,97984.41
2022-12-16T10:48:30.732Z,97989.31
2022-12-16T10:51:18.916Z,97990.13
2022-12-16T10:54:08.795Z,97987.53
2022-12-16T10:56:53.626Z,97991.41
2022-12-16T10:59:38.940Z,97978.75
2022-12-16T11:02:37.632Z,97976.44
2022-12-16T11:05:50.952Z,97979.66
2022-12-16T11:08:46.793Z,97975.41
2022-12-16T11:11:39.058Z,97982.84
2022-12-16T11:15:12.421Z,97980.03
2022-12-16T11:17:54.567Z,97988.75
2022-12-16T11:20:48.837Z,97984.16
2022-12-16T11:23:42.221Z,97987.09
2022-12-16T11:26:37.650Z,97987.94
2022-12-16T11:29:30.567Z,97982.66
2022-12-16T11:32:27.697Z,97991.03
2022-12-16T11:35:16.609Z,97993.97
2022-12-16T11:38:02.522Z,97996.06
2022-12-16T11:40:49.799Z,98003.56
2022-12-16T11:43:37.245Z,98001.22
2022-12-16T11:46:28.985Z,98009.16
2022-12-16T11:49:24.738Z,98002.97
2022-12-16T11:52:35.812Z,98007.25
2022-12-16T11:56:05.434Z,98015.69
2022-12-16T11:59:12.635Z,98012.78
2022-12-16T12:02:06.705Z,98007.50
2022-12-16T12:04:53.966Z,98016.63
2022-12-16T12:07:58.571Z,98011.38
2022-12-16T12:11:12.314Z,98025.63
2022-12-16T12:14:14.111Z,98027.69
2022-12-16T12:17:09.623Z,98034.16
2022-12-16T12:20:11.257Z,98032.16
2022-12-16T12:22:58.482Z,98037.19
2022-12-16T12:25:49.506Z,98028.75
2022-12-16T12:28:49.614Z,98026.31
2022-12-16T12:31:46.620Z,98029.00
2022-12-16T12:35:09.866Z,98028.03
2022-12-16T12:38:30.180Z,98038.69
2022-12-16T12:41:30.101Z,98038.25
2022-12-16T12:44:36.951Z,98045.88
2022-12-16T12:47:36.232Z,98056.34
2022-12-16T12:50:27.203Z,98055.97
2022-12-16T12:53:24.293Z,98060.69
2022-12-16T12:56:38.299Z,98063.22
2022-12-16T12:59:35.366Z,98066.72
2022-12-16T13:02:25.084Z,98076.47
2022-12-16T13:05:11.193Z,98070.94
2022-12-16T13:07:55.914Z,98077.13
2022-12-16T13:10:44.490Z,98085.59
2022-12-16T13:13:36.205Z,98081.66
2022-12-16T13:16:23.937Z,98088.06
2022-12-16T13:19:47.759Z,98087.16
2022-12-16T13:22:51.879Z,98098.13
2022-12-16T13:26:07.087Z,98096.41
2022-12-16T13:28:58.130Z,98088.50
2022-12-16T13:31:45.041Z,98099.38
2022-12-16T13:34:33.271Z,98104.38
2022-12-16T13:37:26.891Z,98099.47
2022-12-16T13:40:36.720Z,98101.91
2022-12-16T13:43:23.939Z,98107.28
2022-12-16T13:46:18.298Z,98113.56
2022-12-16T13:49:03.538Z,98116.44
2022-12-16T13:51:57.717Z,98116.44
2022-12-16T13:54:58.007Z,98112.88
2022-12-16T13:57:45.307Z,98122.44
2022-12-16T14:00:42.373Z,98126.91
2022-12-16T14:03:40.768Z,98139.47
2022-12-16T14:06:34.547Z,98134.72
2022-12-16T14:09:22.967Z,98140.56
2022-12-16T14:12:19.726Z,98145.22
2022-12-16T14:15:18.391Z,98152.47
2022-12-16T14:18:58.594Z,98154.50
2022-12-16T14:21:53.564Z,98151.59
2022-12-16T14:24:44.030Z,98154.50
2022-12-16T14:27:35.944Z,98158.78
2022-12-16T14:30:34.325Z,98151.22
2022-12-16T14:33:19.185Z,98173.63
2022-12-16T14:36:08.231Z,98189.38
2022-12-16T14:38:54.169Z,98196.41
2022-12-16T14:41:44.023Z,98196.28
2022-12-16T14:44:47.003Z,98200.13
2022-12-16T14:47:36.472Z,98199.50
2022-12-16T14:50:22.273Z,98205.06
2022-12-16T14:53:07.133Z,98210.59
2022-12-16T14:55:54.013Z,98209.69
2022-12-16T14:58:41.808Z,98211.97
2022-12-16T15:01:33.785Z,98214.53
2022-12-16T15:04:24.044Z,98222.81
2022-12-16T15:07:12.505Z,98233.63
2022-12-16T15:10:05.072Z,98235.31
2022-12-16T15:12:55.937Z,98232.03
2022-12-16T15:16:00.902Z,98235.16
2022-12-16T15:18:53.444Z,98237.69
2022-12-16T15:21:38.668Z,98244.81
2022-12-16T15:24:38.309Z,98249.94
2022-12-16T15:27:42.649Z,98257.34
2022-12-16T15:30:46.513Z,98262.63
2022-12-16T15:33:36.544Z,98271.22
2022-12-16T15:36:23.199Z,98277.16
2022-12-16T15:39:08.738Z,98280.56
2022-12-16T15:41:56.508Z,98287.06
2022-12-16T15:44:46.940Z,98286.34
2022-12-16T15:47:44.474Z,98299.16
2022-12-16T15:50:32.819Z,98308.03
2022-12-16T15:53:56.526Z,98309.91
2022-12-16T15:56:41.562Z,98306.44
2022-12-16T16:00:15.201Z,98325.63
2022-12-16T16:03:06.340Z,98327.56
2022-12-16T16:05:54.549Z,98331.69
2022-12-16T16:08:39.858Z,98327.22
2022-12-16T16:11:24.662Z,98337.38
2022-12-16T16:14:13.989Z,98344.75
2022-12-16T16:16:59.502Z,98341.84
2022-12-16T16:19:45.993Z,98346.97
2022-12-16T16:22:35.296Z,98357.28
2022-12-16T16:25:20.654Z,98359.56
2022-12-16T16:28:06.085Z,98371.72
2022-12-16T16:30:52.825Z,98370.78
2022-12-16T16:33:37.787Z,98371.31
2022-12-16T16:36:32.424Z,98376.50
2022-12-16T16:39:22.265Z,98384.22
2022-12-16T16:42:07.075Z,98386.19
2022-12-16T16:44:51.779Z,98396.75
2022-12-16T16:47:36.730Z,98400.75
2022-12-16T16:50:22.609Z,98402.38
2022-12-16T16:53:07.427Z,98410.63
2022-12-16T16:55:52.146Z,98415.09
2022-12-16T16:58:49.037Z,98422.69
2022-12-16T17:01:36.435Z,98422.81
2022-12-16T17:04:22.247Z,98429.47
2022-12-16T17:07:07.925Z,98424.53
2022-12-16T17:09:52.607Z,98424.19
2022-12-16T17:12:43.602Z,98431.19
2022-12-16T17:15:49.414Z,98433.16
2022-12-16T17:18:36.459Z,98436.56
2022-12-16T17:21:22.002Z,98440.72
2022-12-16T17:24:06.974Z,98445.66
2022-12-16T17:26:52.387Z,98444.69
2022-12-16T17:29:40.664Z,98453.53
2022-12-16T17:32:26.626Z,98451.91
2022-12-16T17:35:11.958Z,98452.25
2022-12-16T17:37:57.337Z,98467.09
2022-12-16T17:40:42.172Z,98467.91
2022-12-16T17:43:27.607Z,98468.09
2022-12-16T17:46:16.643Z,98471.38
2022-12-16T17:49:01.815Z,98482.72
2022-12-16T17:51:47.160Z,98480.06
2022-12-16T17:54:32.574Z,98482.56
2022-12-16T17:57:17.421Z,98487.38
2022-12-16T18:00:02.364Z,98498.91
2022-12-16T18:02:47.343Z,98503.03
2022-12-16T18:05:38.845Z,98496.28
2022-12-16T18:08:26.199Z,98497.31
2022-12-16T18:11:12.678Z,98506.25
2022-12-16T18:13:57.589Z,98504.75
2022-12-16T18:16:42.826Z,98509.69
2022-12-16T18:19:32.006Z,98513.31
2022-12-16T18:22:16.714Z,98514.63
2022-12-16T18:25:02.055Z,98521.91
2022-12-16T18:27:47.235Z,98527.19
2022-12-16T18:30:32.576Z,98530.44
2022-12-16T18:33:17.693Z,98537.88
2022-12-16T18:36:02.656Z,98540.66
2022-12-16T18:38:48.060Z,98547.31
2022-12-16T18:41:35.829Z,98555.53
2022-12-16T18:44:22.193Z,98560.16
2022-12-16T18:47:07.615Z,98563.47
2022-12-16T18:49:52.422Z,98568.41
2022-12-16T18:52:38.928Z,98567.09
2022-12-16T18:55:24.883Z,98574.97
2022-12-16T18:58:34.788Z,98588.22
2022-12-16T19:01:21.671Z,98587.22
2022-12-16T19:04:06.718Z,98589.19
2022-12-16T19:07:05.837Z,98594.47
2022-12-16T19:09:51.509Z,98604.53
2022-12-16T19:12:36.280Z,98599.44
2022-12-16T19:15:21.673Z,98611.59
2022-12-16T19:18:06.603Z,98607.66
2022-12-16T19:20:51.684Z,98613.59
2022-12-16T19:23:37.092Z,98620.66
2022-12-16T19:26:22.052Z,98614.59
2022-12-16T19:29:07.322Z,98628.91
2022-12-16T19:31:52.025Z,98629.09
2022-12-16T19:34:37.183Z,98624.66
2022-12-16T19:37:22.187Z,98628.09
2022-12-16T19:40:06.948Z,98623.69
2022-12-16T19:42:51.972Z,98624.50
2022-12-16T19:45:36.759Z,98620.22
2022-12-16T19:48:25.628Z,98628.44
2022-12-16T19:51:17.244Z,98635.72
2022-12-16T19:54:02.997Z,98644.28
2022-12-16T19:56:48.299Z,98642.78
2022-12-16T19:59:33.212Z,98649.53
2022-12-16T20:02:18.107Z,98655.50
2022-12-16T20:05:03.099Z,98648.56
2022-12-16T20:07:48.216Z,98647.91
2022-12-16T20:10:33.600Z,98655.81
2022-12-16T20:13:24.873Z,98659.47
2022-12-16T20:16:20.258Z,98659.78
2022-12-16T20:19:05.442Z,98662.09
2022-12-16T20:21:52.502Z,98667.34
2022-12-16T20:24:41.843Z,98672.81
2022-12-16T20:27:27.843Z,98671.66
2022-12-16T20:30:12.569Z,98683.03
2022-12-16T20:32:57.888Z,98683.19
2022-12-16T20:35:42.823Z,98674.97
2022-12-16T20:38:27.864Z,98683.22
2022-12-16T20:41:16.995Z,98686.00
2022-12-16T20:44:02.319Z,98686.81
2022-12-16T20:46:48.119Z,98689.13
2022-12-16T20:49:33.468Z,98695.22
2022-12-16T20:52:18.777Z,98703.66
2022-12-16T20:55:03.661Z,98703.16
2022-12-16T20:57:48.922Z,98710.91
2022-12-16T21:00:34.280Z,98715.84
2022-12-16T21:03:19.616Z,98713.22
2022-12-16T21:06:04.696Z,98724.44
2022-12-16T21:08:49.855Z,98719.66
2022-12-16T21:11:34.706Z,98725.44
2022-12-16T21:14:19.831Z,98735.16
2022-12-16T21:17:04.923Z,98734.16
2022-12-16T21:20:03.466Z,98723.63
2022-12-16T21:22:48.189Z,98741.44
2022-12-16T21:25:33.463Z,98747.34
2022-12-16T21:28:18.912Z,98752.81
2022-12-16T21:31:04.784Z,98752.75
2022-12-16T21:33:50.170Z,98749.47
2022-12-16T21:36:35.218Z,98747.00
2022-12-16T21:39:20.657Z,98754.38
2022-12-16T21:42:05.500Z,98765.25
2022-12-16T21:44:50.477Z,98764.81
2022-12-16T21:47:35.621Z,98765.63
2022-12-16T21:50:20.516Z,98770.56
2022-12-16T21:53:06.472Z,98780.47
2022-12-16T21:55:51.220Z,98773.84
2022-12-16T21:58:36.938Z,98779.84
2022-12-16T22:01:22.281Z,98773.16
2022-12-16T22:04:07.514Z,98774.16
2022-12-16T22:06:52.370Z,98781.56
2022-12-16T22:09:37.201Z,98787.16
2022-12-16T22:12:22.365Z,98793.63
2022-12-16T22:15:07.524Z,98799.56
2022-12-16T22:17:57.961Z,98801.19
2022-12-16T22:20:43.569Z,98798.91
2022-12-16T22:23:28.634Z,98812.34
2022-12-16T22:26:15.655Z,98814.75
2022-12-16T22:29:01.332Z,98805.44
2022-12-16T22:31:46.778Z,98805.75
2022-12-16T22:34:31.921Z,98811.06
2022-12-16T22:37:16.795Z,98816.38
2022-12-16T22:40:01.624Z,98821.50
2022-12-16T22:42:46.533Z,98818.56
2022-12-16T22:45:31.892Z,98820.44
2022-12-16T22:48:16.759Z,98826.53
2022-12-16T22:51:01.473Z,98822.78
2022-12-16T22:53:46.847Z,98827.88
2022-12-16T22:56:31.800Z,98830.84
2022-12-16T22:59:16.750Z,98825.44
2022-12-16T23:02:01.996Z,98827.31
2022-12-16T23:04:47.297Z,98824.66
2022-12-16T23:07:32.898Z,98821.63
2022-12-16T23:10:18.213Z,98830.03
2022-12-16T23:13:02.976Z,98821.44
2022-12-16T23:15:47.990Z,98829.81
2022-12-16T23:18:33.323Z,98839.03
2022-12-16T23:21:18.117Z,98836.41
2022-12-16T23:24:02.829Z,98835.44
2022-12-16T23:26:47.640Z,98835.16
2022-12-16T23:29:32.499Z,98845.31
2022-12-16T23:32:17.355Z,98856.16
2022-12-16T23:35:02.236Z,98853.72
2022-12-16T23:37:47.650Z,98855.91
2022-12-16T23:40:32.340Z,98859.84
2022-12-16T23:43:17.111Z,98866.63
2022-12-16T23:46:03.150Z,98864.50
2022-12-16T23:48:48.392Z,98861.72
2022-12-16T23:51:33.254Z,98856.63
2022-12-16T23:54:18.074Z,98851.69
2022-12-16T23:57:03.078Z,98859.72
2022-12-16T23:59:47.705Z,98855.94
